Time;durP1;ratioP1;P1;durP2;ratioP2;P2;SDS_P1;SDS_P2;PMS_P1;PMS_P2;Temp;Humidity;BMP_temperature;BMP_pressure;BME280_temperature;BME280_humidity;BME280_pressure;Samples;Min_cycle;Max_cycle;Signal;HPM_P1;HPM_P2
2021/06/29 00:01:39;;;;;;;64.70;41.60;;;19.10;99.90;;;;;;5008287;28;25090;-74
2021/06/29 00:04:04;;;;;;;67.72;41.90;;;19.00;99.90;;;;;;4993483;28;25065;-74
2021/06/29 00:06:30;;;;;;;65.47;42.40;;;19.00;99.90;;;;;;4999339;28;25076;-74
2021/06/29 00:08:56;;;;;;;70.90;42.00;;;19.00;99.90;;;;;;5007140;28;25068;-73
2021/06/29 00:11:23;;;;;;;65.28;41.25;;;18.90;99.90;;;;;;4998556;28;25161;-74
2021/06/29 00:13:48;;;;;;;66.50;40.40;;;18.90;99.90;;;;;;5001736;28;25066;-74
2021/06/29 00:16:14;;;;;;;70.78;42.45;;;18.90;99.90;;;;;;5004082;28;25050;-75
2021/06/29 00:18:40;;;;;;;71.38;40.97;;;19.00;99.90;;;;;;5008676;28;25102;-73
2021/06/29 00:21:05;;;;;;;59.13;38.33;;;19.20;99.90;;;;;;5014167;28;25057;-75
2021/06/29 00:23:37;;;;;;;71.03;41.25;;;19.30;99.90;;;;;;5019347;28;25099;-73
2021/06/29 00:26:04;;;;;;;62.38;37.15;;;19.40;99.90;;;;;;5004618;28;25147;-75
2021/06/29 00:28:29;;;;;;;64.22;38.15;;;19.50;99.90;;;;;;4998401;28;25085;-75
2021/06/29 00:30:55;;;;;;;63.42;39.13;;;19.50;99.90;;;;;;5007662;28;25074;-74
2021/06/29 00:33:21;;;;;;;58.58;37.35;;;19.40;99.90;;;;;;5004668;28;25079;-74
2021/06/29 00:35:46;;;;;;;61.38;38.83;;;19.30;99.90;;;;;;4998854;28;25060;-75
2021/06/29 00:38:12;;;;;;;61.30;36.30;;;19.30;99.90;;;;;;5009696;28;25084;-74
2021/06/29 00:40:38;;;;;;;57.90;35.42;;;19.40;99.90;;;;;;5011749;28;25073;-74
2021/06/29 00:43:04;;;;;;;59.33;36.00;;;19.50;99.90;;;;;;5010864;28;25063;-73
2021/06/29 00:45:29;;;;;;;61.90;37.28;;;19.50;99.90;;;;;;5008153;28;25141;-73
2021/06/29 00:47:55;;;;;;;72.13;36.38;;;19.30;99.90;;;;;;5006733;28;25078;-74
2021/06/29 00:50:21;;;;;;;66.63;36.97;;;19.20;99.90;;;;;;5006056;28;25088;-74
2021/06/29 00:52:47;;;;;;;68.78;37.60;;;19.00;99.90;;;;;;5007167;28;25075;-74
2021/06/29 00:55:13;;;;;;;72.13;37.72;;;18.80;99.90;;;;;;5006457;28;25063;-75
2021/06/29 00:57:41;;;;;;;67.32;36.58;;;18.80;99.90;;;;;;4995779;28;25060;-75
2021/06/29 01:00:09;;;;;;;65.00;38.83;;;18.80;99.90;;;;;;5006465;28;25104;-73
2021/06/29 01:02:35;;;;;;;60.47;36.95;;;18.80;99.90;;;;;;5005175;28;25076;-72
2021/06/29 01:05:04;;;;;;;62.95;37.10;;;18.80;99.90;;;;;;5005845;28;25055;-75
2021/06/29 01:07:31;;;;;;;60.42;35.20;;;18.80;99.90;;;;;;5010904;28;25094;-74
2021/06/29 01:09:57;;;;;;;61.33;36.30;;;18.80;99.90;;;;;;5013536;28;25059;-75
2021/06/29 01:12:22;;;;;;;68.85;36.58;;;18.90;99.90;;;;;;5006029;28;25074;-74
2021/06/29 01:14:48;;;;;;;65.05;35.38;;;19.00;99.90;;;;;;5005473;28;25070;-74
2021/06/29 01:17:14;;;;;;;69.13;37.85;;;19.00;99.90;;;;;;5010317;28;25063;-75
2021/06/29 01:22:09;;;;;;;69.35;37.65;;;18.90;99.90;;;;;;5007129;28;25151;-74
2021/06/29 01:24:35;;;;;;;63.08;36.50;;;18.80;99.90;;;;;;5010784;28;25110;-73
2021/06/29 01:27:19;;;;;;;64.13;35.05;;;18.80;99.90;;;;;;5011417;28;25107;-73
2021/06/29 01:31:00;;;;;;;70.72;36.78;;;18.80;99.90;;;;;;5009286;28;25090;-74
2021/06/29 01:32:33;;;;;;;71.88;38.20;;;18.80;99.90;;;;;;5008718;28;25069;-74
2021/06/29 01:35:04;;;;;;;62.10;37.40;;;18.70;99.90;;;;;;5011293;28;25062;-73
2021/06/29 01:37:29;;;;;;;74.25;40.45;;;18.60;99.90;;;;;;5011264;28;25172;-74
2021/06/29 01:40:01;;;;;;;71.72;37.38;;;18.50;99.90;;;;;;5010459;28;25141;-73
2021/06/29 01:42:27;;;;;;;68.55;38.15;;;18.60;99.90;;;;;;5000106;28;25120;-74
2021/06/29 01:44:52;;;;;;;73.35;37.08;;;18.60;99.90;;;;;;5012137;28;25101;-74
2021/06/29 01:47:27;;;;;;;70.45;37.38;;;18.60;99.90;;;;;;5008656;28;25063;-74
2021/06/29 01:49:54;;;;;;;72.30;39.92;;;18.50;99.90;;;;;;5010813;28;25064;-74
2021/06/29 01:52:20;;;;;;;74.43;38.80;;;18.50;99.90;;;;;;5003349;28;25082;-74
2021/06/29 01:54:45;;;;;;;79.63;40.40;;;18.40;99.90;;;;;;5008864;28;25139;-74
2021/06/29 01:57:15;;;;;;;69.93;38.22;;;18.40;99.90;;;;;;4982798;28;25076;-74
2021/06/29 01:59:46;;;;;;;80.57;39.80;;;18.40;99.90;;;;;;5008829;28;25061;-75
2021/06/29 02:02:11;;;;;;;78.95;41.28;;;18.40;99.90;;;;;;5008755;28;25051;-74
2021/06/29 02:04:37;;;;;;;73.93;40.50;;;18.50;99.90;;;;;;5011129;28;25085;-74
2021/06/29 02:07:03;;;;;;;82.32;40.90;;;18.50;99.90;;;;;;5006816;28;25090;-75
2021/06/29 02:09:28;;;;;;;77.75;40.78;;;18.50;99.90;;;;;;5011589;28;25101;-73
2021/06/29 02:11:54;;;;;;;89.47;42.22;;;18.50;99.90;;;;;;5009176;28;25060;-73
2021/06/29 02:14:19;;;;;;;89.03;43.92;;;18.50;99.90;;;;;;5011455;28;25079;-73
2021/06/29 02:16:45;;;;;;;87.75;43.42;;;18.40;99.90;;;;;;5008098;28;25075;-74
2021/06/29 02:19:10;;;;;;;93.18;44.50;;;18.40;99.90;;;;;;5006711;28;25064;-74
2021/06/29 02:21:37;;;;;;;98.65;44.75;;;18.30;99.90;;;;;;5009326;28;25059;-74
2021/06/29 02:24:03;;;;;;;89.75;45.33;;;18.30;99.90;;;;;;5008841;28;25142;-74
2021/06/29 02:26:28;;;;;;;88.88;45.83;;;18.30;99.90;;;;;;5010039;28;25057;-74
2021/06/29 02:28:54;;;;;;;87.53;42.75;;;18.30;99.90;;;;;;5007545;28;25066;-74
2021/06/29 02:31:20;;;;;;;92.32;44.03;;;18.50;99.90;;;;;;5008561;28;25066;-74
2021/06/29 02:33:45;;;;;;;97.20;45.67;;;18.50;99.90;;;;;;5007897;28;25152;-74
2021/06/29 02:36:11;;;;;;;95.30;45.28;;;18.40;99.90;;;;;;5007999;28;25069;-74
2021/06/29 02:38:37;;;;;;;96.75;43.55;;;18.40;99.90;;;;;;5008989;28;25070;-73
2021/06/29 02:41:04;;;;;;;106.18;44.53;;;18.30;99.90;;;;;;5010240;28;25078;-74
2021/06/29 02:43:30;;;;;;;91.35;42.63;;;18.30;99.90;;;;;;5011404;28;25062;-74
2021/06/29 02:45:55;;;;;;;90.80;41.33;;;18.30;99.90;;;;;;4997695;28;25060;-74
2021/06/29 02:48:21;;;;;;;75.35;40.95;;;18.40;99.90;;;;;;5009788;28;25066;-74
2021/06/29 02:50:47;;;;;;;87.35;39.30;;;18.40;99.90;;;;;;5032663;28;25070;-73
2021/06/29 02:53:12;;;;;;;80.07;38.10;;;18.40;99.90;;;;;;5025230;28;25066;-74
2021/06/29 02:55:38;;;;;;;86.35;37.10;;;18.50;99.90;;;;;;5016778;28;25078;-74
2021/06/29 02:58:06;;;;;;;75.45;37.28;;;18.70;99.90;;;;;;5012977;28;25049;-73
2021/06/29 03:00:32;;;;;;;70.45;34.75;;;18.80;99.90;;;;;;5002787;28;25097;-74
2021/06/29 03:03:00;;;;;;;77.93;35.25;;;18.90;99.90;;;;;;5005703;28;25070;-73
2021/06/29 03:05:26;;;;;;;70.20;33.38;;;18.90;99.90;;;;;;4998993;28;25123;-73
2021/06/29 03:07:52;;;;;;;78.20;35.95;;;18.90;99.90;;;;;;5016947;28;25084;-73
2021/06/29 03:10:17;;;;;;;70.68;34.25;;;18.80;99.90;;;;;;5018106;28;25078;-73
2021/06/29 03:12:43;;;;;;;71.55;35.10;;;18.80;99.90;;;;;;5018915;28;25084;-73
2021/06/29 03:15:09;;;;;;;69.25;34.85;;;18.80;99.90;;;;;;5016945;28;25094;-75
2021/06/29 03:17:35;;;;;;;70.90;35.63;;;18.80;99.90;;;;;;5012943;28;25051;-74
2021/06/29 03:20:01;;;;;;;81.18;35.22;;;18.80;99.90;;;;;;5009569;28;25059;-74
2021/06/29 03:22:27;;;;;;;76.07;34.88;;;18.60;99.90;;;;;;5019642;28;25058;-73
2021/06/29 03:24:53;;;;;;;80.05;35.53;;;18.40;99.90;;;;;;5008642;28;25114;-73
2021/06/29 03:27:19;;;;;;;76.88;35.15;;;18.30;99.90;;;;;;5009597;28;25096;-73
2021/06/29 03:29:45;;;;;;;87.00;36.22;;;18.30;99.90;;;;;;5011135;28;25056;-73
2021/06/29 03:32:11;;;;;;;80.07;34.65;;;18.30;99.90;;;;;;5020902;28;25060;-74
2021/06/29 03:34:37;;;;;;;73.20;36.17;;;18.30;99.90;;;;;;5019183;28;25061;-73
2021/06/29 03:37:04;;;;;;;83.03;36.28;;;18.20;99.90;;;;;;5003731;28;25045;-74
2021/06/29 03:39:33;;;;;;;94.20;39.60;;;18.20;99.90;;;;;;5006535;28;25050;-74
2021/06/29 03:41:59;;;;;;;89.05;38.28;;;18.10;99.90;;;;;;5002888;28;25135;-74
2021/06/29 03:44:25;;;;;;;99.68;39.80;;;18.10;99.90;;;;;;5006828;28;25061;-74
2021/06/29 03:46:50;;;;;;;98.57;40.95;;;18.10;99.90;;;;;;4999546;28;25179;-74
2021/06/29 03:49:16;;;;;;;103.72;41.38;;;18.00;99.90;;;;;;5006715;28;25090;-74
2021/06/29 03:51:42;;;;;;;90.78;39.13;;;18.00;99.90;;;;;;5006984;28;25114;-74
2021/06/29 03:54:08;;;;;;;101.25;40.20;;;18.10;99.90;;;;;;5006925;28;25139;-75
2021/06/29 03:56:34;;;;;;;97.40;38.00;;;18.00;99.90;;;;;;5005808;28;25086;-75
2021/06/29 03:59:04;;;;;;;88.95;39.17;;;18.10;99.90;;;;;;5009525;28;25047;-74
2021/06/29 04:01:31;;;;;;;80.47;37.08;;;18.20;99.90;;;;;;5007708;28;25082;-74
2021/06/29 04:03:57;;;;;;;80.30;37.38;;;18.30;99.90;;;;;;5007171;28;25094;-74
2021/06/29 04:06:29;;;;;;;76.20;36.20;;;18.40;99.90;;;;;;5006191;28;25086;-74
2021/06/29 04:08:56;;;;;;;76.80;37.47;;;18.30;99.90;;;;;;5006936;28;25059;-73
2021/06/29 04:11:22;;;;;;;88.10;37.17;;;18.30;99.90;;;;;;5019073;28;25084;-73
2021/06/29 04:13:50;;;;;;;87.45;37.60;;;18.20;99.90;;;;;;5020610;28;25069;-74
2021/06/29 04:16:17;;;;;;;88.78;38.78;;;18.20;99.90;;;;;;5016977;28;25143;-74
2021/06/29 04:18:44;;;;;;;81.82;37.80;;;18.30;99.90;;;;;;5030657;28;25058;-74
2021/06/29 04:21:10;;;;;;;80.30;37.67;;;18.40;99.90;;;;;;5018034;28;25071;-74
2021/06/29 04:23:36;;;;;;;73.63;36.75;;;18.50;99.90;;;;;;5018508;28;25115;-74
2021/06/29 04:26:02;;;;;;;68.03;34.35;;;18.60;99.90;;;;;;5024547;28;25048;-73
2021/06/29 04:28:28;;;;;;;83.43;36.08;;;18.60;99.90;;;;;;5016924;28;25067;-74
2021/06/29 04:30:55;;;;;;;79.43;36.60;;;18.60;99.90;;;;;;5014021;28;25073;-74
2021/06/29 04:33:21;;;;;;;60.75;33.05;;;18.60;99.90;;;;;;5028848;28;25080;-75
2021/06/29 04:35:46;;;;;;;57.13;32.13;;;18.70;99.90;;;;;;5029826;28;25065;-76
2021/06/29 04:38:13;;;;;;;65.22;32.00;;;18.80;99.90;;;;;;5023617;28;25065;-74
2021/06/29 04:40:39;;;;;;;63.75;33.17;;;19.00;99.90;;;;;;5021591;28;25094;-75
2021/06/29 04:43:06;;;;;;;72.10;35.35;;;19.00;99.90;;;;;;5021926;28;25049;-74
2021/06/29 04:45:32;;;;;;;69.72;34.72;;;19.00;99.90;;;;;;5015012;28;25070;-75
2021/06/29 04:47:57;;;;;;;69.90;34.67;;;19.00;99.90;;;;;;5011610;28;25077;-76
2021/06/29 04:50:24;;;;;;;72.63;35.65;;;19.00;99.90;;;;;;5001999;28;25071;-74
2021/06/29 04:52:50;;;;;;;66.40;35.10;;;19.10;99.90;;;;;;4997766;28;25060;-74
2021/06/29 04:55:17;;;;;;;73.35;33.63;;;19.10;99.90;;;;;;5012123;28;25148;-75
2021/06/29 04:57:44;;;;;;;81.32;35.42;;;19.10;99.90;;;;;;5001376;28;25111;-74
2021/06/29 05:00:13;;;;;;;64.80;33.42;;;19.00;99.90;;;;;;4996367;28;25111;-74
2021/06/29 05:02:39;;;;;;;66.28;34.72;;;18.80;99.90;;;;;;5000798;28;25109;-75
2021/06/29 05:05:06;;;;;;;67.95;33.85;;;18.80;99.90;;;;;;5005436;28;25134;-73
2021/06/29 05:07:32;;;;;;;78.47;34.75;;;18.80;99.90;;;;;;5008212;28;25134;-73
2021/06/29 05:09:59;;;;;;;71.75;33.00;;;18.80;99.90;;;;;;5009656;28;25096;-74
2021/06/29 05:12:25;;;;;;;77.78;34.03;;;18.80;99.90;;;;;;5007451;28;25082;-74
2021/06/29 05:14:50;;;;;;;73.75;34.20;;;18.80;99.90;;;;;;5006411;28;25145;-75
2021/06/29 05:17:16;;;;;;;88.97;35.28;;;18.80;99.90;;;;;;5004619;28;25099;-73
2021/06/29 05:19:42;;;;;;;81.70;35.83;;;18.80;99.90;;;;;;5007467;28;25088;-73
2021/06/29 05:22:07;;;;;;;75.78;36.40;;;18.60;99.90;;;;;;5010886;28;25068;-75
2021/06/29 05:24:33;;;;;;;80.15;36.25;;;18.70;99.90;;;;;;5001265;28;25081;-75
2021/06/29 05:26:59;;;;;;;86.05;37.70;;;18.70;99.90;;;;;;5003428;28;25068;-74
2021/06/29 05:29:24;;;;;;;81.32;36.78;;;18.60;99.90;;;;;;5003820;28;25095;-74
2021/06/29 05:31:50;;;;;;;94.43;39.05;;;18.70;99.90;;;;;;5003524;28;25096;-74
2021/06/29 05:34:16;;;;;;;97.20;38.80;;;18.80;99.90;;;;;;5003006;28;25060;-75
2021/06/29 05:36:42;;;;;;;90.25;36.95;;;18.80;99.90;;;;;;5006181;28;25093;-73
2021/06/29 05:39:09;;;;;;;98.88;37.47;;;18.80;99.90;;;;;;5004539;28;25057;-74
2021/06/29 05:41:34;;;;;;;93.32;38.25;;;18.80;99.90;;;;;;5004661;28;25057;-74
2021/06/29 05:44:01;;;;;;;106.88;39.97;;;18.70;99.90;;;;;;5009635;28;25118;-74
2021/06/29 05:46:27;;;;;;;115.85;41.13;;;18.80;99.90;;;;;;5010515;28;25117;-73
2021/06/29 05:48:53;;;;;;;108.80;40.92;;;18.70;99.90;;;;;;5003483;28;25150;-73
2021/06/29 05:51:19;;;;;;;108.25;41.53;;;18.70;99.90;;;;;;5007164;28;25065;-74
2021/06/29 05:53:45;;;;;;;108.30;41.63;;;18.70;99.90;;;;;;5008272;28;25073;-74
2021/06/29 05:56:12;;;;;;;124.28;42.90;;;18.70;99.90;;;;;;5009190;28;25051;-75
2021/06/29 05:58:38;;;;;;;114.30;42.40;;;18.60;99.90;;;;;;5003474;28;25131;-72
2021/06/29 06:01:04;;;;;;;105.38;40.70;;;18.60;99.90;;;;;;5007904;28;25057;-73
2021/06/29 06:03:30;;;;;;;108.43;40.10;;;18.60;99.90;;;;;;5007777;28;25179;-74
2021/06/29 06:05:57;;;;;;;106.25;38.03;;;18.60;99.90;;;;;;5006873;28;25179;-74
2021/06/29 06:08:23;;;;;;;109.82;37.45;;;18.60;99.90;;;;;;5008989;28;25081;-75
2021/06/29 06:10:49;;;;;;;98.57;37.22;;;18.60;99.90;;;;;;5004684;28;25062;-73
2021/06/29 06:13:15;;;;;;;104.38;35.92;;;18.50;99.90;;;;;;5002555;28;25071;-74
2021/06/29 06:15:41;;;;;;;118.50;38.88;;;18.50;99.90;;;;;;5014060;28;25087;-76
2021/06/29 06:18:07;;;;;;;143.48;41.20;;;18.50;99.90;;;;;;5014221;28;25192;-74
2021/06/29 06:20:34;;;;;;;126.55;40.80;;;18.50;99.90;;;;;;5014939;28;25116;-74
2021/06/29 06:22:59;;;;;;;136.75;40.05;;;18.60;99.90;;;;;;5009020;28;25094;-74
2021/06/29 06:25:25;;;;;;;129.15;40.20;;;18.60;99.90;;;;;;5023768;28;25062;-75
2021/06/29 06:27:50;;;;;;;138.70;40.53;;;18.70;99.90;;;;;;5025263;28;25105;-76
2021/06/29 06:30:18;;;;;;;123.85;39.28;;;18.80;99.90;;;;;;5002541;28;25106;-75
2021/06/29 06:32:44;;;;;;;133.15;39.53;;;18.70;99.90;;;;;;5007974;28;25073;-74
2021/06/29 06:35:10;;;;;;;121.10;37.42;;;18.70;99.90;;;;;;5000550;28;25100;-74
2021/06/29 06:37:36;;;;;;;123.07;38.55;;;18.70;99.90;;;;;;5002418;28;25160;-75
2021/06/29 06:40:04;;;;;;;127.55;38.58;;;18.70;99.90;;;;;;5000066;28;25079;-74
2021/06/29 06:42:33;;;;;;;130.65;38.67;;;18.60;99.90;;;;;;5001555;28;25092;-74
2021/06/29 06:44:59;;;;;;;126.93;39.17;;;18.50;99.90;;;;;;5005871;28;25076;-73
2021/06/29 06:47:24;;;;;;;116.97;37.17;;;18.50;99.90;;;;;;5002168;28;25148;-76
2021/06/29 06:49:51;;;;;;;107.10;36.65;;;18.50;99.90;;;;;;4998385;28;25110;-75
2021/06/29 06:52:17;;;;;;;96.47;36.30;;;18.50;99.90;;;;;;5008526;28;25066;-74
2021/06/29 06:54:44;;;;;;;107.75;37.92;;;18.60;99.90;;;;;;5022232;28;25094;-74
2021/06/29 06:57:10;;;;;;;92.28;34.78;;;18.50;99.90;;;;;;5018585;28;25057;-74
2021/06/29 06:59:36;;;;;;;95.97;36.47;;;18.60;99.90;;;;;;5003994;28;25060;-75
2021/06/29 07:02:02;;;;;;;94.72;36.65;;;18.70;99.90;;;;;;5029394;28;25062;-73
2021/06/29 07:04:28;;;;;;;84.97;35.53;;;18.80;99.90;;;;;;5035861;28;25128;-77
2021/06/29 07:06:53;;;;;;;82.90;37.03;;;18.80;99.90;;;;;;5023548;28;25049;-74
2021/06/29 07:09:20;;;;;;;85.70;36.30;;;18.80;99.90;;;;;;5025227;28;25067;-76
2021/06/29 07:11:45;;;;;;;86.28;38.78;;;18.80;99.90;;;;;;5025302;28;25070;-76
2021/06/29 07:14:13;;;;;;;81.72;37.58;;;18.70;99.90;;;;;;5032216;28;25073;-74
2021/06/29 07:16:38;;;;;;;83.30;38.45;;;18.60;99.90;;;;;;5009954;28;25073;-75
2021/06/29 07:19:04;;;;;;;73.18;36.83;;;18.50;99.90;;;;;;5030685;28;25068;-76
2021/06/29 07:21:30;;;;;;;68.68;34.45;;;18.60;99.90;;;;;;5029750;28;25058;-75
2021/06/29 07:24:02;;;;;;;57.90;31.70;;;18.80;99.90;;;;;;5034080;28;25067;-77
2021/06/29 07:26:31;;;;;;;55.58;30.45;;;18.90;99.90;;;;;;5036425;28;25051;-76
2021/06/29 07:28:58;;;;;;;53.88;31.08;;;19.00;99.90;;;;;;5029139;28;25045;-74
2021/06/29 07:31:24;;;;;;;53.25;30.33;;;19.00;99.90;;;;;;5017582;28;25068;-75
2021/06/29 07:33:50;;;;;;;52.65;29.60;;;19.00;99.90;;;;;;5013728;28;25110;-75
2021/06/29 07:36:17;;;;;;;49.85;27.73;;;19.20;99.90;;;;;;5005716;28;25073;-76
2021/06/29 07:38:44;;;;;;;46.45;28.15;;;19.30;99.90;;;;;;5011322;28;25055;-76
2021/06/29 07:41:10;;;;;;;49.30;27.60;;;19.30;99.90;;;;;;4995886;28;25076;-76
2021/06/29 07:43:37;;;;;;;49.40;28.48;;;19.40;99.90;;;;;;4996195;28;25154;-74
2021/06/29 07:46:05;;;;;;;44.22;27.63;;;19.60;99.90;;;;;;4999446;28;25095;-76
2021/06/29 07:48:30;;;;;;;47.42;28.20;;;19.70;99.90;;;;;;5007926;28;25123;-75
2021/06/29 07:50:58;;;;;;;44.97;26.55;;;19.80;99.90;;;;;;5001486;28;25085;-77
2021/06/29 07:53:24;;;;;;;52.55;26.65;;;19.70;99.90;;;;;;5001037;28;25072;-76
2021/06/29 07:55:50;;;;;;;46.22;27.77;;;19.50;99.90;;;;;;4997912;28;25096;-77
2021/06/29 07:58:17;;;;;;;50.30;28.85;;;19.60;99.90;;;;;;5004779;28;25069;-75
2021/06/29 08:00:43;;;;;;;48.78;28.67;;;19.80;99.90;;;;;;5002754;28;25060;-74
2021/06/29 08:03:09;;;;;;;56.53;29.75;;;19.80;99.90;;;;;;5003989;28;25176;-74
2021/06/29 08:05:35;;;;;;;47.42;27.73;;;19.80;99.90;;;;;;5001041;28;25102;-75
2021/06/29 08:08:06;;;;;;;47.60;29.10;;;19.80;99.90;;;;;;4994437;28;25088;-74
2021/06/29 08:10:33;;;;;;;50.92;29.15;;;19.80;99.90;;;;;;4998570;28;25106;-75
2021/06/29 08:12:59;;;;;;;46.85;28.02;;;19.80;99.90;;;;;;5001579;28;25118;-75
2021/06/29 08:15:26;;;;;;;50.00;26.88;;;19.90;99.90;;;;;;5007609;28;25099;-74
2021/06/29 08:17:52;;;;;;;42.63;24.75;;;19.90;99.90;;;;;;5011733;28;25099;-76
2021/06/29 08:20:18;;;;;;;42.78;25.77;;;19.80;99.90;;;;;;5011295;28;25094;-74
2021/06/29 08:22:44;;;;;;;45.17;25.63;;;19.60;99.90;;;;;;5017478;28;25074;-75
2021/06/29 08:25:13;;;;;;;34.88;22.77;;;19.60;99.90;;;;;;5005233;28;25062;-75
2021/06/29 08:27:39;;;;;;;36.60;23.38;;;19.80;99.90;;;;;;5002570;28;25066;-73
2021/06/29 08:30:09;;;;;;;38.00;22.92;;;19.80;99.90;;;;;;4999937;28;25074;-76
2021/06/29 08:32:37;;;;;;;31.35;21.23;;;20.00;99.90;;;;;;5008276;28;25051;-74
2021/06/29 08:35:07;;;;;;;31.05;20.40;;;20.00;99.90;;;;;;5009181;28;25053;-77
2021/06/29 08:37:32;;;;;;;31.27;21.52;;;20.00;99.90;;;;;;5003214;28;25059;-75
2021/06/29 08:39:58;;;;;;;30.45;22.25;;;20.00;99.90;;;;;;5011200;28;25062;-77
2021/06/29 08:42:24;;;;;;;35.85;24.67;;;20.10;99.90;;;;;;5002253;28;25073;-74
2021/06/29 08:44:49;;;;;;;38.70;25.33;;;20.20;99.90;;;;;;5001032;28;25074;-74
2021/06/29 08:47:15;;;;;;;38.95;26.48;;;20.30;99.90;;;;;;5012789;28;25076;-76
2021/06/29 08:49:42;;;;;;;33.45;22.88;;;20.40;99.90;;;;;;5005902;28;25076;-76
2021/06/29 08:52:09;;;;;;;29.90;20.77;;;20.60;99.90;;;;;;5012332;28;25072;-75
2021/06/29 08:54:36;;;;;;;29.67;20.58;;;20.70;99.90;;;;;;5002006;28;25117;-78
2021/06/29 08:57:03;;;;;;;30.35;21.05;;;20.70;99.90;;;;;;5004355;28;25056;-78
2021/06/29 08:59:31;;;;;;;29.08;20.58;;;20.60;99.90;;;;;;5011826;28;25059;-78
2021/06/29 09:01:59;;;;;;;29.02;19.20;;;20.70;99.90;;;;;;5023805;28;25082;-76
2021/06/29 09:04:47;;;;;;;30.00;17.65;;;20.80;99.90;;;;;;5017129;28;25059;-77
2021/06/29 09:07:25;;;;;;;26.80;19.10;;;21.00;99.90;;;;;;5016819;28;25130;-77
2021/06/29 09:09:57;;;;;;;25.42;16.73;;;21.00;99.90;;;;;;5006312;28;25053;-78
2021/06/29 09:12:40;;;;;;;23.05;15.90;;;20.80;99.90;;;;;;5005545;28;25077;-77
2021/06/29 09:15:26;;;;;;;24.88;16.60;;;20.70;99.90;;;;;;5015954;28;25053;-76
2021/06/29 09:17:57;;;;;;;26.42;18.00;;;20.90;99.90;;;;;;5017876;28;25055;-76
2021/06/29 09:20:50;;;;;;;28.35;18.23;;;20.80;99.90;;;;;;5010836;28;25053;-73
2021/06/29 09:23:26;;;;;;;31.88;20.15;;;20.50;99.90;;;;;;5010450;28;25071;-76
2021/06/29 09:26:08;;;;;;;35.50;22.13;;;20.60;99.90;;;;;;5001946;28;25091;-75
2021/06/29 09:28:50;;;;;;;33.97;21.70;;;20.80;99.90;;;;;;5009679;28;25098;-76
2021/06/29 09:31:19;;;;;;;30.50;19.60;;;21.00;99.90;;;;;;5019893;28;25066;-79
2021/06/29 09:34:00;;;;;;;35.80;23.05;;;21.10;99.90;;;;;;5012594;28;25065;-75
2021/06/29 09:36:30;;;;;;;36.80;22.53;;;21.10;99.90;;;;;;5015440;28;25066;-76
2021/06/29 09:38:59;;;;;;;36.65;21.08;;;21.10;99.90;;;;;;5013513;28;25105;-76
2021/06/29 09:41:29;;;;;;;33.97;22.77;;;21.20;99.90;;;;;;5017574;28;25096;-74
2021/06/29 09:44:09;;;;;;;31.45;22.67;;;21.50;99.90;;;;;;5028229;28;25056;-79
2021/06/29 09:46:37;;;;;;;36.03;24.63;;;21.50;99.90;;;;;;5034877;28;25061;-76
2021/06/29 09:49:10;;;;;;;35.45;23.40;;;21.30;99.90;;;;;;5014273;28;25079;-74
2021/06/29 09:51:40;;;;;;;32.92;23.05;;;21.40;99.90;;;;;;5016882;28;25069;-74
2021/06/29 09:54:11;;;;;;;36.03;24.67;;;21.40;99.90;;;;;;5021145;28;25065;-74
2021/06/29 09:56:47;;;;;;;33.45;24.17;;;21.40;99.90;;;;;;5014091;28;25069;-76
2021/06/29 09:59:21;;;;;;;33.80;23.17;;;21.50;99.90;;;;;;5017151;28;25062;-78
2021/06/29 10:01:49;;;;;;;46.08;26.73;;;21.50;99.90;;;;;;5016658;28;25059;-74
2021/06/29 10:04:15;;;;;;;39.05;26.75;;;21.20;99.90;;;;;;5034948;28;25092;-79
2021/06/29 10:06:43;;;;;;;36.63;27.27;;;21.10;99.90;;;;;;5027303;28;25059;-77
2021/06/29 10:09:16;;;;;;;42.97;27.17;;;20.90;99.90;;;;;;5025543;28;25083;-75
2021/06/29 10:11:52;;;;;;;39.63;27.52;;;21.10;99.90;;;;;;5020993;28;25055;-77
2021/06/29 10:14:19;;;;;;;46.22;30.02;;;21.30;99.90;;;;;;5020283;28;25081;-78
2021/06/29 10:16:55;;;;;;;46.90;30.50;;;21.40;99.90;;;;;;5020492;28;25052;-75
2021/06/29 10:22:07;;;;;;;42.35;29.45;;;21.70;99.90;;;;;;5009972;28;25056;-77
2021/06/29 10:24:36;;;;;;;41.65;26.83;;;21.70;99.90;;;;;;5015963;28;25077;-77
2021/06/29 10:27:08;;;;;;;40.80;28.98;;;21.60;99.90;;;;;;5019725;28;25048;-74
2021/06/29 10:29:35;;;;;;;;;;;21.40;99.90;;;;;;5020918;28;25132;-74
2021/06/29 10:32:07;;;;;;;38.40;28.02;;;21.50;99.90;;;;;;5015631;28;24102;-73
2021/06/29 10:34:34;;;;;;;37.45;25.30;;;21.60;99.90;;;;;;5015816;28;25112;-75
2021/06/29 10:37:00;;;;;;;34.55;27.23;;;21.50;99.90;;;;;;5007243;28;25064;-75
2021/06/29 10:39:30;;;;;;;36.78;25.92;;;21.70;99.90;;;;;;5011558;28;25053;-73
2021/06/29 10:42:02;;;;;;;40.40;24.42;;;21.80;99.90;;;;;;5007416;28;25055;-77
2021/06/29 10:44:33;;;;;;;31.88;23.52;;;21.60;99.90;;;;;;5015641;28;25119;-75
2021/06/29 10:46:59;;;;;;;32.33;23.40;;;21.70;99.90;;;;;;5016515;28;25047;-75
2021/06/29 10:49:35;;;;;;;27.23;21.95;;;21.80;99.90;;;;;;5005993;28;25102;-76
2021/06/29 10:52:06;;;;;;;28.02;21.15;;;21.90;99.90;;;;;;5001106;28;25152;-75
2021/06/29 10:54:37;;;;;;;22.75;17.27;;;22.20;99.90;;;;;;5014698;28;25085;-76
2021/06/29 10:57:07;;;;;;;27.55;19.52;;;22.30;99.90;;;;;;5020653;28;25093;-76
2021/06/29 10:59:34;;;;;;;27.20;17.30;;;22.20;99.90;;;;;;5005538;28;25104;-75
2021/06/29 11:02:01;;;;;;;25.83;18.05;;;22.30;99.90;;;;;;5020173;28;25073;-74
2021/06/29 11:04:48;;;;;;;22.75;17.75;;;22.20;99.90;;;;;;5014014;28;25124;-75
2021/06/29 11:07:25;;;;;;;26.65;17.77;;;22.00;99.90;;;;;;5001825;28;25063;-71
2021/06/29 11:09:53;;;;;;;23.27;17.55;;;21.60;99.90;;;;;;5016416;28;25069;-75
2021/06/29 11:12:20;;;;;;;26.50;17.63;;;21.70;99.90;;;;;;4997848;28;25158;-74
2021/06/29 11:14:48;;;;;;;26.60;17.52;;;21.60;99.90;;;;;;5010159;28;25075;-74
2021/06/29 11:17:14;;;;;;;23.88;16.95;;;21.80;99.90;;;;;;5016890;28;25070;-76
2021/06/29 11:20:06;;;;;;;23.27;16.75;;;21.90;99.90;;;;;;5015413;28;25076;-76
2021/06/29 11:22:59;;;;;;;25.43;16.93;;;22.50;99.90;;;;;;5014359;28;25030;-75
2021/06/29 11:25:45;;;;;;;18.60;14.73;;;22.20;99.90;;;;;;5014427;28;25086;-73
2021/06/29 11:28:28;;;;;;;24.42;16.25;;;22.20;99.90;;;;;;5012218;28;25186;-73
2021/06/29 11:31:02;;;;;;;26.13;17.02;;;22.00;99.90;;;;;;5012201;28;25071;-75
2021/06/29 11:33:55;;;;;;;29.48;18.65;;;21.90;99.90;;;;;;5024840;28;25088;-78
2021/06/29 11:36:23;;;;;;;28.75;17.73;;;21.60;99.90;;;;;;5014610;28;25063;-75
2021/06/29 11:38:54;;;;;;;28.38;16.80;;;21.30;99.90;;;;;;5013589;28;25064;-74
2021/06/29 11:41:32;;;;;;;32.08;16.58;;;21.40;99.90;;;;;;5000696;28;25098;-75
2021/06/29 11:44:07;;;;;;;25.65;14.85;;;21.60;99.90;;;;;;5013620;28;25104;-75
2021/06/29 11:46:52;;;;;;;27.85;15.50;;;21.60;99.90;;;;;;5014262;28;25073;-76
2021/06/29 11:49:37;;;;;;;29.05;16.48;;;21.60;99.90;;;;;;5013267;28;25064;-75
2021/06/29 11:52:07;;;;;;;25.77;15.73;;;21.60;99.90;;;;;;5014761;28;25083;-75
2021/06/29 11:54:42;;;;;;;23.42;14.35;;;21.50;99.90;;;;;;5013168;28;25088;-77
2021/06/29 11:57:18;;;;;;;23.50;14.68;;;21.60;99.90;;;;;;5017149;28;25128;-76
2021/06/29 11:59:48;;;;;;;20.40;14.70;;;21.50;99.90;;;;;;5009115;28;25094;-75
2021/06/29 12:02:25;;;;;;;27.92;14.32;;;21.40;99.90;;;;;;5009443;28;25260;-74
2021/06/29 12:05:01;;;;;;;23.75;15.13;;;21.50;99.90;;;;;;5013869;28;24923;-75
2021/06/29 12:07:40;;;;;;;25.65;15.05;;;21.50;99.90;;;;;;5006859;28;25054;-73
2021/06/29 12:10:14;;;;;;;21.08;14.23;;;21.70;99.90;;;;;;5016655;28;25067;-75
2021/06/29 12:12:43;;;;;;;26.27;14.30;;;21.90;99.90;;;;;;5009971;28;25202;-75
2021/06/29 12:15:13;;;;;;;18.30;12.15;;;21.80;99.90;;;;;;5007265;28;25068;-74
2021/06/29 12:18:13;;;;;;;21.50;12.57;;;22.00;99.90;;;;;;5003863;28;25045;-74
2021/06/29 12:20:51;;;;;;;24.02;12.48;;;22.10;99.90;;;;;;4973527;28;25075;-74
2021/06/29 12:23:32;;;;;;;30.65;14.77;;;22.40;99.90;;;;;;5000961;28;25082;-74
2021/06/29 12:26:00;;;;;;;26.20;15.77;;;22.10;99.90;;;;;;5002772;28;25149;-75
2021/06/29 12:28:28;;;;;;;27.73;13.77;;;21.90;99.90;;;;;;5006157;28;25130;-74
2021/06/29 12:31:04;;;;;;;31.92;14.52;;;21.80;99.90;;;;;;5011826;28;25066;-75
2021/06/29 12:33:30;;;;;;;21.98;13.20;;;21.80;99.90;;;;;;5003406;28;25064;-77
2021/06/29 12:36:02;;;;;;;28.42;14.35;;;21.90;99.90;;;;;;5004688;28;25145;-77
2021/06/29 12:38:31;;;;;;;24.73;15.02;;;21.70;99.90;;;;;;5010246;28;25053;-77